createdAt,value
2017-06-14T00:00:13.637Z,0
2017-06-14T00:01:14.224Z,0
2017-06-14T00:02:14.799Z,0
2017-06-14T00:03:15.384Z,0
2017-06-14T00:04:15.970Z,0
2017-06-14T00:05:16.548Z,0
2017-06-14T00:06:17.119Z,0
2017-06-14T00:07:17.694Z,0
2017-06-14T00:08:18.269Z,0
2017-06-14T00:09:18.843Z,0
2017-06-14T00:10:19.417Z,0
2017-06-14T00:11:19.990Z,0
2017-06-14T00:12:20.565Z,0
2017-06-14T00:13:21.139Z,0
2017-06-14T00:14:21.713Z,0
2017-06-14T00:15:22.287Z,0
2017-06-14T00:16:22.862Z,0
2017-06-14T00:17:23.435Z,0
2017-06-14T00:18:24.013Z,0
2017-06-14T00:19:24.583Z,0
2017-06-14T00:20:25.157Z,0
2017-06-14T00:21:25.731Z,0
2017-06-14T00:22:26.306Z,0
2017-06-14T00:23:26.880Z,0
2017-06-14T00:24:27.454Z,0
2017-06-14T00:25:28.028Z,0
2017-06-14T00:26:28.603Z,0
2017-06-14T00:27:29.178Z,0
2017-06-14T00:28:29.751Z,0
2017-06-14T00:29:30.326Z,0
2017-06-14T00:30:30.900Z,0
2017-06-14T00:31:31.472Z,0
2017-06-14T00:32:32.047Z,0
2017-06-14T00:33:32.634Z,0
2017-06-14T00:34:33.207Z,0
2017-06-14T00:35:33.784Z,0
2017-06-14T00:36:34.370Z,0
2017-06-14T00:37:34.945Z,0
2017-06-14T00:38:35.521Z,0
2017-06-14T00:39:36.094Z,0
2017-06-14T00:40:36.669Z,0
2017-06-14T00:41:37.243Z,0
2017-06-14T00:42:37.817Z,0
2017-06-14T00:43:38.391Z,0
2017-06-14T00:44:38.968Z,0
2017-06-14T00:45:39.541Z,0
2017-06-14T00:46:40.115Z,0
2017-06-14T00:47:40.691Z,0
2017-06-14T00:48:41.264Z,0
2017-06-14T00:49:41.836Z,0
2017-06-14T00:50:42.411Z,0
2017-06-14T00:51:42.983Z,0
2017-06-14T00:52:43.558Z,0
2017-06-14T00:53:44.131Z,0
2017-06-14T00:54:44.705Z,0
2017-06-14T00:55:45.279Z,0
2017-06-14T00:56:45.852Z,0
2017-06-14T00:57:46.427Z,0
2017-06-14T00:58:47.001Z,0
2017-06-14T00:59:47.576Z,0
2017-06-14T01:00:48.150Z,0
2017-06-14T01:01:48.724Z,0
2017-06-14T01:02:49.297Z,0
2017-06-14T01:03:49.872Z,0
2017-06-14T01:04:50.445Z,0
2017-06-14T01:05:51.020Z,0
2017-06-14T01:06:51.593Z,0
2017-06-14T01:07:52.183Z,0
2017-06-14T01:08:52.768Z,0
2017-06-14T01:09:53.343Z,0
2017-06-14T01:10:53.918Z,0
2017-06-14T01:11:54.491Z,0
2017-06-14T01:12:55.067Z,0
2017-06-14T01:13:55.642Z,0
2017-06-14T01:14:56.227Z,0
2017-06-14T01:15:56.801Z,0
2017-06-14T01:16:57.387Z,0
2017-06-14T01:17:57.963Z,0
2017-06-14T01:18:58.537Z,0
2017-06-14T01:19:59.111Z,0
2017-06-14T01:20:59.684Z,0
2017-06-14T01:22:00.258Z,0
2017-06-14T01:23:00.843Z,0
2017-06-14T01:24:01.418Z,0
2017-06-14T01:25:01.995Z,0
2017-06-14T01:26:02.567Z,0
2017-06-14T01:27:03.143Z,0
2017-06-14T01:28:03.718Z,0
2017-06-14T01:29:04.292Z,0
2017-06-14T01:30:04.865Z,0
2017-06-14T01:31:05.440Z,0
2017-06-14T01:32:06.012Z,0
2017-06-14T01:33:06.588Z,0
2017-06-14T01:34:07.161Z,0
2017-06-14T01:35:07.735Z,0
2017-06-14T01:36:08.320Z,0
2017-06-14T01:37:08.894Z,0
2017-06-14T01:38:09.470Z,0
2017-06-14T01:39:10.056Z,0
2017-06-14T01:40:10.630Z,0
2017-06-14T01:41:11.206Z,0
2017-06-14T01:42:11.780Z,0
2017-06-14T01:43:12.356Z,0
2017-06-14T01:44:12.929Z,0
2017-06-14T01:45:13.506Z,0
2017-06-14T01:46:14.078Z,0
2017-06-14T01:47:14.653Z,0
2017-06-14T01:48:15.225Z,0
2017-06-14T01:49:15.801Z,0
2017-06-14T01:50:16.374Z,0
2017-06-14T01:51:16.949Z,0
2017-06-14T01:52:17.523Z,0
2017-06-14T01:53:18.097Z,0
2017-06-14T01:54:18.670Z,0
2017-06-14T01:55:19.244Z,0
2017-06-14T01:56:19.818Z,0
2017-06-14T01:57:20.392Z,0
2017-06-14T01:58:20.977Z,0
2017-06-14T01:59:21.550Z,0
2017-06-14T02:00:22.127Z,0
2017-06-14T02:01:22.700Z,0
2017-06-14T02:02:23.275Z,0
2017-06-14T02:03:23.848Z,0
2017-06-14T02:04:24.422Z,0
2017-06-14T02:05:24.995Z,0
2017-06-14T02:06:25.571Z,0
2017-06-14T02:07:26.144Z,0
2017-06-14T02:08:26.717Z,0
2017-06-14T02:09:27.290Z,0
2017-06-14T02:10:27.863Z,0
2017-06-14T02:11:28.438Z,0
2017-06-14T02:12:29.009Z,0
2017-06-14T02:13:29.584Z,0
2017-06-14T02:14:30.156Z,0
2017-06-14T02:15:30.729Z,0
2017-06-14T02:16:31.303Z,0
2017-06-14T02:17:31.876Z,0
2017-06-14T02:18:32.449Z,0
2017-06-14T02:19:33.024Z,0
2017-06-14T02:20:33.596Z,0
2017-06-14T02:21:34.169Z,0
2017-06-14T02:22:34.743Z,0
2017-06-14T02:23:35.316Z,0
2017-06-14T02:24:35.888Z,0
2017-06-14T02:25:36.462Z,0
2017-06-14T02:26:37.036Z,0
2017-06-14T02:27:37.609Z,0
2017-06-14T02:28:38.183Z,0
2017-06-14T02:29:38.769Z,0
2017-06-14T02:30:39.340Z,0
2017-06-14T02:31:39.915Z,0
2017-06-14T02:32:40.489Z,0
2017-06-14T02:33:41.067Z,0
2017-06-14T02:34:41.637Z,0
2017-06-14T02:35:42.211Z,0
2017-06-14T02:36:42.784Z,0
2017-06-14T02:37:43.357Z,0
2017-06-14T02:38:43.930Z,0
2017-06-14T02:39:44.504Z,4
2017-06-14T02:40:45.076Z,0
2017-06-14T02:41:45.650Z,0
2017-06-14T02:42:46.222Z,4
2017-06-14T02:43:46.795Z,0
2017-06-14T02:44:47.369Z,0
2017-06-14T02:45:47.942Z,4
2017-06-14T02:46:48.527Z,0
2017-06-14T02:47:49.100Z,4
2017-06-14T02:48:49.675Z,0
2017-06-14T02:49:50.248Z,4
2017-06-14T02:50:50.823Z,0
2017-06-14T02:51:51.396Z,4
2017-06-14T02:52:51.970Z,4
2017-06-14T02:53:52.544Z,4
2017-06-14T02:54:53.116Z,4
2017-06-14T02:55:53.690Z,4
2017-06-14T02:56:54.274Z,8
2017-06-14T02:57:54.850Z,4
2017-06-14T02:58:55.423Z,8
2017-06-14T02:59:55.997Z,4
2017-06-14T03:00:56.571Z,8
2017-06-14T03:01:57.147Z,12
2017-06-14T03:02:57.719Z,8
2017-06-14T03:03:58.293Z,8
2017-06-14T03:04:58.867Z,12
2017-06-14T03:05:59.441Z,12
2017-06-14T03:07:00.014Z,12
2017-06-14T03:08:00.588Z,12
2017-06-14T03:09:01.162Z,16
2017-06-14T03:10:01.739Z,16
2017-06-14T03:11:02.314Z,20
2017-06-14T03:12:02.888Z,20
2017-06-14T03:13:03.464Z,24
2017-06-14T03:14:04.037Z,24
2017-06-14T03:15:04.612Z,24
2017-06-14T03:16:05.186Z,28
2017-06-14T03:17:05.772Z,28
2017-06-14T03:18:06.348Z,32
2017-06-14T03:19:06.921Z,32
2017-06-14T03:20:07.496Z,32
2017-06-14T03:21:08.072Z,40
2017-06-14T03:22:08.643Z,40
2017-06-14T03:23:09.218Z,40
2017-06-14T03:24:09.791Z,44
2017-06-14T03:25:10.365Z,48
2017-06-14T03:26:10.938Z,48
2017-06-14T03:27:11.515Z,52
2017-06-14T03:28:12.089Z,60
2017-06-14T03:29:12.666Z,60
2017-06-14T03:30:13.238Z,64
2017-06-14T03:31:13.814Z,68
2017-06-14T03:32:14.400Z,72
2017-06-14T03:33:14.975Z,72
2017-06-14T03:34:15.550Z,76
2017-06-14T03:35:16.125Z,80
2017-06-14T03:36:16.700Z,84
2017-06-14T03:37:17.273Z,84
2017-06-14T03:38:17.847Z,88
2017-06-14T03:39:18.420Z,92
2017-06-14T03:40:18.993Z,92
2017-06-14T03:41:19.567Z,96
2017-06-14T03:42:20.140Z,96
2017-06-14T03:43:20.728Z,104
2017-06-14T03:44:21.303Z,108
2017-06-14T03:45:21.877Z,108
2017-06-14T03:46:22.453Z,112
2017-06-14T03:47:23.028Z,116
2017-06-14T03:48:23.605Z,116
2017-06-14T03:49:24.179Z,124
2017-06-14T03:50:24.757Z,124
2017-06-14T03:51:25.331Z,128
2017-06-14T03:52:25.905Z,132
2017-06-14T03:53:26.481Z,132
2017-06-14T03:54:27.055Z,140
2017-06-14T03:55:27.632Z,140
2017-06-14T03:56:28.207Z,144
2017-06-14T03:57:28.785Z,144
2017-06-14T03:58:29.359Z,148
2017-06-14T03:59:29.934Z,152
2017-06-14T04:00:30.509Z,156
2017-06-14T04:01:31.084Z,160
2017-06-14T04:02:31.660Z,168
2017-06-14T04:03:32.236Z,168
2017-06-14T04:04:32.812Z,168
2017-06-14T04:05:33.400Z,168
2017-06-14T04:06:33.987Z,176
2017-06-14T04:07:34.574Z,180
2017-06-14T04:08:35.150Z,184
2017-06-14T04:09:35.724Z,192
2017-06-14T04:10:36.298Z,196
2017-06-14T04:11:36.873Z,204
2017-06-14T04:12:37.449Z,208
2017-06-14T04:13:38.026Z,212
2017-06-14T04:14:38.612Z,212
2017-06-14T04:15:39.188Z,216
2017-06-14T04:16:39.764Z,216
2017-06-14T04:17:40.339Z,224
2017-06-14T04:18:40.917Z,224
2017-06-14T04:19:41.493Z,224
2017-06-14T04:20:42.069Z,232
2017-06-14T04:21:42.647Z,236
2017-06-14T04:22:43.224Z,244
2017-06-14T04:23:43.802Z,248
2017-06-14T04:24:44.377Z,256
2017-06-14T04:25:44.966Z,260
2017-06-14T04:26:45.543Z,260
2017-06-14T04:27:46.118Z,264
2017-06-14T04:28:46.695Z,264
2017-06-14T04:29:47.273Z,264
2017-06-14T04:30:47.860Z,276
2017-06-14T04:31:48.438Z,276
2017-06-14T04:32:49.016Z,276
2017-06-14T04:33:49.605Z,280
2017-06-14T04:34:50.181Z,284
2017-06-14T04:35:50.759Z,288
2017-06-14T04:36:51.335Z,284
2017-06-14T04:37:51.911Z,292
2017-06-14T04:38:52.489Z,300
2017-06-14T04:39:53.066Z,304
2017-06-14T04:40:53.644Z,312
2017-06-14T04:41:54.220Z,320
2017-06-14T04:42:54.797Z,324
2017-06-14T04:43:55.374Z,328
2017-06-14T04:44:55.951Z,332
2017-06-14T04:45:56.530Z,336
2017-06-14T04:46:57.106Z,340
2017-06-14T04:47:57.682Z,348
2017-06-14T04:48:58.260Z,352
2017-06-14T04:49:58.839Z,356
2017-06-14T04:50:59.416Z,360
2017-06-14T04:51:59.992Z,364
2017-06-14T04:53:00.569Z,376
2017-06-14T04:54:01.147Z,372
2017-06-14T04:55:01.724Z,384
2017-06-14T04:56:02.303Z,392
2017-06-14T04:57:02.879Z,396
2017-06-14T04:58:03.456Z,404
2017-06-14T04:59:04.033Z,408
2017-06-14T05:00:04.611Z,416
2017-06-14T05:01:05.191Z,420
2017-06-14T05:02:05.767Z,424
2017-06-14T05:03:06.343Z,432
2017-06-14T05:04:06.921Z,436
2017-06-14T05:05:07.499Z,440
2017-06-14T05:06:08.078Z,444
2017-06-14T05:07:08.654Z,452
2017-06-14T05:08:09.231Z,456
2017-06-14T05:09:09.809Z,456
2017-06-14T05:10:10.387Z,460
2017-06-14T05:11:10.966Z,464
2017-06-14T05:12:11.543Z,468
2017-06-14T05:13:12.119Z,468
2017-06-14T05:14:12.698Z,476
2017-06-14T05:15:13.288Z,476
2017-06-14T05:16:13.865Z,480
2017-06-14T05:17:14.444Z,484
2017-06-14T05:18:15.021Z,488
2017-06-14T05:19:15.598Z,492
2017-06-14T05:20:16.176Z,492
2017-06-14T05:21:16.752Z,496
2017-06-14T05:22:17.332Z,500
2017-06-14T05:23:17.909Z,504
2017-06-14T05:24:18.487Z,508
2017-06-14T05:25:19.065Z,508
2017-06-14T05:26:19.641Z,512
2017-06-14T05:27:20.220Z,512
2017-06-14T05:28:20.799Z,516
2017-06-14T05:29:21.377Z,520
2017-06-14T05:30:21.954Z,524
2017-06-14T05:31:22.532Z,524
2017-06-14T05:32:23.111Z,532
2017-06-14T05:33:23.688Z,536
2017-06-14T05:34:24.268Z,536
2017-06-14T05:35:24.845Z,540
2017-06-14T05:36:25.423Z,544
2017-06-14T05:37:26.002Z,548
2017-06-14T05:38:26.591Z,548
2017-06-14T05:39:27.180Z,552
2017-06-14T05:40:27.758Z,552
2017-06-14T05:41:28.335Z,556
2017-06-14T05:42:28.913Z,560
2017-06-14T05:43:29.493Z,564
2017-06-14T05:44:30.070Z,568
2017-06-14T05:45:30.648Z,572
2017-06-14T05:46:31.225Z,572
2017-06-14T05:47:31.804Z,576
2017-06-14T05:48:32.383Z,580
2017-06-14T05:49:32.961Z,580
2017-06-14T05:50:33.538Z,588
2017-06-14T05:51:34.116Z,592
2017-06-14T05:52:34.694Z,592
2017-06-14T05:53:35.273Z,596
2017-06-14T05:54:35.851Z,600
2017-06-14T05:55:36.430Z,600
2017-06-14T05:56:37.008Z,604
2017-06-14T05:57:37.598Z,604
2017-06-14T05:58:38.176Z,608
2017-06-14T05:59:38.754Z,608
2017-06-14T06:00:39.334Z,608
2017-06-14T06:01:39.913Z,612
2017-06-14T06:02:40.501Z,616
2017-06-14T06:03:41.081Z,620
2017-06-14T06:04:41.670Z,620
2017-06-14T06:05:42.252Z,628
2017-06-14T06:06:42.828Z,632
2017-06-14T06:07:43.408Z,632
2017-06-14T06:08:43.987Z,636
2017-06-14T06:09:44.564Z,636
2017-06-14T06:10:45.143Z,636
2017-06-14T06:11:45.727Z,644
2017-06-14T06:12:46.302Z,644
2017-06-14T06:13:46.880Z,644
2017-06-14T06:14:47.458Z,644
2017-06-14T06:15:48.040Z,632
2017-06-14T06:16:48.616Z,652
2017-06-14T06:17:49.198Z,656
2017-06-14T06:18:49.776Z,656
2017-06-14T06:19:50.354Z,660
2017-06-14T06:20:50.934Z,664
2017-06-14T06:21:51.514Z,672
2017-06-14T06:22:52.093Z,676
2017-06-14T06:23:52.673Z,672
2017-06-14T06:24:53.251Z,672
2017-06-14T06:25:53.831Z,676
2017-06-14T06:26:54.422Z,676
2017-06-14T06:27:55.000Z,680
2017-06-14T06:28:55.580Z,684
2017-06-14T06:29:56.159Z,684
2017-06-14T06:30:56.751Z,692
2017-06-14T06:31:57.331Z,692
2017-06-14T06:32:57.910Z,696
2017-06-14T06:33:58.530Z,704
2017-06-14T06:34:59.080Z,700
2017-06-14T06:35:59.674Z,712
2017-06-14T06:37:00.250Z,712
2017-06-14T06:38:00.829Z,712
2017-06-14T06:39:01.407Z,716
2017-06-14T06:40:01.987Z,708
2017-06-14T06:41:02.567Z,712
2017-06-14T06:42:03.146Z,716
2017-06-14T06:43:03.725Z,728
2017-06-14T06:44:04.304Z,736
2017-06-14T06:45:04.883Z,736
2017-06-14T06:46:05.463Z,732
2017-06-14T06:47:06.041Z,740
2017-06-14T06:48:06.621Z,748
2017-06-14T06:49:07.200Z,748
2017-06-14T06:50:07.791Z,756
2017-06-14T06:51:08.370Z,756
2017-06-14T06:52:08.949Z,748
2017-06-14T06:53:09.528Z,768
2017-06-14T06:54:10.108Z,768
2017-06-14T06:55:10.687Z,768
2017-06-14T06:56:11.268Z,772
2017-06-14T06:57:11.847Z,764
2017-06-14T06:58:12.425Z,772
2017-06-14T06:59:13.007Z,704
2017-06-14T07:00:13.597Z,696
2017-06-14T07:01:14.179Z,704
2017-06-14T07:02:14.762Z,716
2017-06-14T07:03:15.339Z,732
2017-06-14T07:04:15.917Z,672
2017-06-14T07:05:16.496Z,636
2017-06-14T07:06:17.076Z,684
2017-06-14T07:07:17.657Z,692
2017-06-14T07:08:18.237Z,732
2017-06-14T07:09:18.816Z,728
2017-06-14T07:10:19.395Z,812
2017-06-14T07:11:19.974Z,792
2017-06-14T07:12:20.555Z,752
2017-06-14T07:13:21.134Z,744
2017-06-14T07:14:21.714Z,772
2017-06-14T07:15:22.294Z,764
2017-06-14T07:16:22.874Z,700
2017-06-14T07:17:23.454Z,696
2017-06-14T07:18:24.035Z,648
2017-06-14T07:19:24.616Z,708
2017-06-14T07:20:25.195Z,748
2017-06-14T07:21:25.774Z,752
2017-06-14T07:22:26.356Z,776
2017-06-14T07:23:26.936Z,652
2017-06-14T07:24:27.518Z,712
2017-06-14T07:25:28.108Z,808
2017-06-14T07:26:28.678Z,800
2017-06-14T07:27:29.259Z,788
2017-06-14T07:28:29.839Z,784
2017-06-14T07:29:30.419Z,784
2017-06-14T07:30:31.000Z,788
2017-06-14T07:31:31.579Z,784
2017-06-14T07:32:32.161Z,780
2017-06-14T07:33:32.752Z,780
2017-06-14T07:34:33.333Z,776
2017-06-14T07:35:33.915Z,780
2017-06-14T07:36:34.496Z,732
2017-06-14T07:37:35.075Z,732
2017-06-14T07:38:35.669Z,732
2017-06-14T07:39:36.249Z,728
2017-06-14T07:40:36.828Z,728
2017-06-14T07:41:37.408Z,728
2017-06-14T07:42:37.989Z,728
2017-06-14T07:43:38.580Z,728
2017-06-14T07:44:39.161Z,724
2017-06-14T07:45:39.741Z,724
2017-06-14T07:46:40.327Z,724
2017-06-14T07:47:40.903Z,724
2017-06-14T07:48:41.482Z,724
2017-06-14T07:49:42.063Z,708
2017-06-14T07:50:42.643Z,700
2017-06-14T07:51:43.235Z,712
2017-06-14T07:52:43.815Z,728
2017-06-14T07:53:44.396Z,724
2017-06-14T07:54:44.977Z,728
2017-06-14T07:55:45.558Z,728
2017-06-14T07:56:46.139Z,728
2017-06-14T07:57:46.719Z,724
2017-06-14T07:58:47.299Z,716
2017-06-14T07:59:47.881Z,716
2017-06-14T08:00:48.463Z,716
2017-06-14T08:01:49.054Z,712
2017-06-14T08:02:49.635Z,716
2017-06-14T08:03:50.219Z,712
2017-06-14T08:04:50.798Z,716
2017-06-14T08:05:51.390Z,716
2017-06-14T08:06:51.970Z,716
2017-06-14T08:07:52.550Z,720
2017-06-14T08:08:53.130Z,716
2017-06-14T08:09:53.723Z,720
2017-06-14T08:10:54.305Z,720
2017-06-14T08:11:54.883Z,720
2017-06-14T08:12:55.473Z,720
2017-06-14T08:13:56.047Z,720
2017-06-14T08:14:56.628Z,720
2017-06-14T08:15:57.221Z,724
2017-06-14T08:16:57.802Z,724
2017-06-14T08:17:58.383Z,724
2017-06-14T08:18:58.977Z,724
2017-06-14T08:19:59.557Z,724
2017-06-14T08:21:00.149Z,724
2017-06-14T08:22:00.730Z,720
2017-06-14T08:23:01.311Z,724
2017-06-14T08:24:01.891Z,728
2017-06-14T08:25:02.472Z,728
2017-06-14T08:26:03.054Z,728
2017-06-14T08:27:03.635Z,724
2017-06-14T08:28:04.229Z,728
2017-06-14T08:29:04.810Z,732
2017-06-14T08:30:05.391Z,728
2017-06-14T08:31:05.984Z,732
2017-06-14T08:32:06.565Z,732
2017-06-14T08:33:07.147Z,732
2017-06-14T08:34:07.728Z,732
2017-06-14T08:35:08.309Z,732
2017-06-14T08:36:08.889Z,732
2017-06-14T08:37:09.472Z,736
2017-06-14T08:38:10.053Z,740
2017-06-14T08:39:10.633Z,740
2017-06-14T08:40:11.214Z,736
2017-06-14T08:41:11.794Z,740
2017-06-14T08:42:12.377Z,740
2017-06-14T08:43:12.958Z,740
2017-06-14T08:44:13.540Z,744
2017-06-14T08:45:14.121Z,744
2017-06-14T08:46:14.714Z,744
2017-06-14T08:47:15.294Z,740
2017-06-14T08:48:15.875Z,740
2017-06-14T08:49:16.456Z,744
2017-06-14T08:50:17.039Z,748
2017-06-14T08:51:17.620Z,748
2017-06-14T08:52:18.205Z,748
2017-06-14T08:53:18.783Z,744
2017-06-14T08:54:19.368Z,748
2017-06-14T08:55:19.948Z,748
2017-06-14T08:56:20.529Z,748
2017-06-14T08:57:21.111Z,748
2017-06-14T08:58:21.692Z,752
2017-06-14T08:59:22.278Z,748
2017-06-14T09:00:22.857Z,748
2017-06-14T09:01:23.437Z,748
2017-06-14T09:02:24.023Z,748
2017-06-14T09:03:24.600Z,748
2017-06-14T09:04:25.182Z,768
2017-06-14T09:05:25.765Z,752
2017-06-14T09:06:26.346Z,748
2017-06-14T09:07:26.929Z,748
2017-06-14T09:08:27.510Z,752
2017-06-14T09:09:28.091Z,752
2017-06-14T09:10:28.674Z,752
2017-06-14T09:11:29.256Z,752
2017-06-14T09:12:29.842Z,756
2017-06-14T09:13:30.422Z,752
2017-06-14T09:14:31.002Z,756
2017-06-14T09:15:31.585Z,756
2017-06-14T09:16:32.168Z,760
2017-06-14T09:17:32.752Z,760
2017-06-14T09:18:33.332Z,760
2017-06-14T09:19:33.914Z,760
2017-06-14T09:20:34.497Z,760
2017-06-14T09:21:35.080Z,760
2017-06-14T09:22:35.673Z,760
2017-06-14T09:23:36.257Z,764
2017-06-14T09:24:36.837Z,764
2017-06-14T09:25:37.420Z,764
2017-06-14T09:26:38.001Z,768
2017-06-14T09:27:38.584Z,768
2017-06-14T09:28:39.167Z,768
2017-06-14T09:29:39.760Z,764
2017-06-14T09:30:40.342Z,768
2017-06-14T09:31:40.926Z,772
2017-06-14T09:32:41.506Z,768
2017-06-14T09:33:42.088Z,768
2017-06-14T09:34:42.669Z,776
2017-06-14T09:35:43.251Z,772
2017-06-14T09:36:43.835Z,776
2017-06-14T09:37:44.417Z,776
2017-06-14T09:38:44.999Z,776
2017-06-14T09:39:45.583Z,776
2017-06-14T09:40:46.162Z,780
2017-06-14T09:41:46.746Z,780
2017-06-14T09:42:47.328Z,780
2017-06-14T09:43:47.920Z,784
2017-06-14T09:44:48.505Z,788
2017-06-14T09:45:49.086Z,784
2017-06-14T09:46:49.668Z,784
2017-06-14T09:47:50.250Z,788
2017-06-14T09:48:50.833Z,788
2017-06-14T09:49:51.416Z,788
2017-06-14T09:50:51.997Z,788
2017-06-14T09:51:52.579Z,788
2017-06-14T09:52:53.161Z,788
2017-06-14T09:53:53.742Z,792
2017-06-14T09:54:54.326Z,792
2017-06-14T09:55:54.907Z,796
2017-06-14T09:56:55.490Z,796
2017-06-14T09:57:56.073Z,796
2017-06-14T09:58:56.653Z,796
2017-06-14T09:59:57.237Z,796
2017-06-14T10:00:57.820Z,800
2017-06-14T10:01:58.403Z,800
2017-06-14T10:02:58.985Z,800
2017-06-14T10:03:59.578Z,796
2017-06-14T10:05:00.162Z,796
2017-06-14T10:06:00.743Z,804
2017-06-14T10:07:01.325Z,812
2017-06-14T10:08:01.909Z,808
2017-06-14T10:09:02.490Z,812
2017-06-14T10:10:03.074Z,808
2017-06-14T10:11:03.655Z,816
2017-06-14T10:12:04.237Z,820
2017-06-14T10:13:04.821Z,816
2017-06-14T10:14:05.403Z,812
2017-06-14T10:15:05.986Z,792
2017-06-14T10:16:06.568Z,824
2017-06-14T10:17:07.149Z,820
2017-06-14T10:18:07.735Z,824
2017-06-14T10:19:08.316Z,828
2017-06-14T10:20:08.899Z,824
2017-06-14T10:21:09.482Z,816
2017-06-14T10:22:10.063Z,808
2017-06-14T10:23:10.647Z,820
2017-06-14T10:24:11.230Z,836
2017-06-14T10:25:11.814Z,836
2017-06-14T10:26:12.395Z,840
2017-06-14T10:27:12.977Z,840
2017-06-14T10:28:13.561Z,840
2017-06-14T10:29:14.144Z,836
2017-06-14T10:30:14.730Z,828
2017-06-14T10:31:15.309Z,828
2017-06-14T10:32:15.891Z,824
2017-06-14T10:33:16.475Z,820
2017-06-14T10:34:17.059Z,836
2017-06-14T10:35:17.641Z,844
2017-06-14T10:36:18.223Z,848
2017-06-14T10:37:18.805Z,848
2017-06-14T10:38:19.391Z,844
2017-06-14T10:39:19.983Z,844
2017-06-14T10:40:20.565Z,840
2017-06-14T10:41:21.149Z,852
2017-06-14T10:42:21.731Z,848
2017-06-14T10:43:22.314Z,836
2017-06-14T10:44:22.896Z,852
2017-06-14T10:45:23.491Z,848
2017-06-14T10:46:24.072Z,852
2017-06-14T10:47:24.654Z,868
2017-06-14T10:48:25.237Z,884
2017-06-14T10:49:25.823Z,880
2017-06-14T10:50:26.403Z,876
2017-06-14T10:51:26.986Z,884
2017-06-14T10:52:27.567Z,868
2017-06-14T10:53:28.149Z,880
2017-06-14T10:54:28.733Z,868
2017-06-14T10:55:29.314Z,872
2017-06-14T10:56:29.900Z,876
2017-06-14T10:57:30.484Z,880
2017-06-14T10:58:31.063Z,900
2017-06-14T10:59:31.647Z,896
2017-06-14T11:00:32.230Z,892
2017-06-14T11:01:32.814Z,900
2017-06-14T11:02:33.397Z,904
2017-06-14T11:03:33.978Z,892
2017-06-14T11:04:34.589Z,892
2017-06-14T11:05:35.145Z,884
2017-06-14T11:06:35.730Z,856
2017-06-14T11:07:36.311Z,872
2017-06-14T11:08:36.893Z,880
2017-06-14T11:09:37.477Z,880
2017-06-14T11:10:38.060Z,884
2017-06-14T11:11:38.645Z,884
2017-06-14T11:12:39.239Z,868
2017-06-14T11:13:39.821Z,876
2017-06-14T11:14:40.403Z,888
2017-06-14T11:15:40.985Z,892
2017-06-14T11:16:41.569Z,884
2017-06-14T11:17:42.158Z,884
2017-06-14T11:18:42.740Z,888
2017-06-14T11:19:43.323Z,876
2017-06-14T11:20:43.906Z,900
2017-06-14T11:21:44.488Z,916
2017-06-14T11:22:45.073Z,920
2017-06-14T11:23:45.656Z,916
2017-06-14T11:24:46.236Z,916
2017-06-14T11:25:46.819Z,916
2017-06-14T11:26:47.409Z,920
2017-06-14T11:27:47.987Z,920
2017-06-14T11:28:48.569Z,924
2017-06-14T11:29:49.151Z,924
2017-06-14T11:30:49.733Z,928
2017-06-14T11:31:50.318Z,928
2017-06-14T11:32:50.901Z,916
2017-06-14T11:33:51.483Z,924
2017-06-14T11:34:52.067Z,932
2017-06-14T11:35:52.650Z,940
2017-06-14T11:36:53.232Z,920
2017-06-14T11:37:53.816Z,920
2017-06-14T11:38:54.399Z,924
2017-06-14T11:39:54.984Z,936
2017-06-14T11:40:55.579Z,932
2017-06-14T11:41:56.161Z,932
2017-06-14T11:42:56.744Z,932
2017-06-14T11:43:57.327Z,944
2017-06-14T11:44:57.910Z,956
2017-06-14T11:45:58.505Z,956
2017-06-14T11:46:59.087Z,956
2017-06-14T11:47:59.671Z,960
2017-06-14T11:49:00.256Z,944
2017-06-14T11:50:00.838Z,964
2017-06-14T11:51:01.422Z,968
2017-06-14T11:52:02.004Z,964
2017-06-14T11:53:02.587Z,960
2017-06-14T11:54:03.172Z,940
2017-06-14T11:55:03.756Z,968
2017-06-14T11:56:04.340Z,972
2017-06-14T11:57:04.923Z,964
2017-06-14T11:58:05.506Z,968
2017-06-14T11:59:06.101Z,980
2017-06-14T12:00:06.688Z,956
2017-06-14T12:01:07.267Z,960
2017-06-14T12:02:07.862Z,964
2017-06-14T12:03:08.444Z,992
2017-06-14T12:04:09.040Z,956
2017-06-14T12:05:09.622Z,976
2017-06-14T12:06:10.207Z,976
2017-06-14T12:07:10.790Z,1004
2017-06-14T12:08:11.375Z,996
2017-06-14T12:09:11.959Z,1000
2017-06-14T12:10:12.542Z,1040
2017-06-14T12:11:13.126Z,1036
2017-06-14T12:12:13.711Z,1020
2017-06-14T12:13:14.297Z,1044
2017-06-14T12:14:14.881Z,1016
2017-06-14T12:15:15.465Z,1052
2017-06-14T12:16:16.060Z,1044
2017-06-14T12:17:16.644Z,1040
2017-06-14T12:18:17.229Z,1020
2017-06-14T12:19:17.825Z,1048
2017-06-14T12:20:18.410Z,1016
2017-06-14T12:21:18.995Z,1016
2017-06-14T12:22:19.580Z,1040
2017-06-14T12:23:20.164Z,1008
2017-06-14T12:24:20.750Z,1028
2017-06-14T12:25:21.335Z,1044
2017-06-14T12:26:21.919Z,1096
2017-06-14T12:27:22.503Z,1092
2017-06-14T12:28:23.089Z,1112
2017-06-14T12:29:23.684Z,1120
2017-06-14T12:30:24.268Z,1100
2017-06-14T12:31:24.853Z,1044
2017-06-14T12:32:25.438Z,1084
2017-06-14T12:33:26.026Z,1072
2017-06-14T12:34:26.607Z,1076
2017-06-14T12:35:27.192Z,1116
2017-06-14T12:36:27.777Z,1084
2017-06-14T12:37:28.362Z,1096
2017-06-14T12:38:28.946Z,1132
2017-06-14T12:39:29.531Z,1128
2017-06-14T12:40:30.116Z,1140
2017-06-14T12:41:30.707Z,1140
2017-06-14T12:42:31.285Z,1152
2017-06-14T12:43:31.871Z,1172
2017-06-14T12:44:32.456Z,1204
2017-06-14T12:45:33.041Z,1208
2017-06-14T12:46:33.624Z,1192
2017-06-14T12:47:34.208Z,1184
2017-06-14T12:48:34.793Z,1168
2017-06-14T12:49:35.379Z,1140
2017-06-14T12:50:35.963Z,1124
2017-06-14T12:51:36.547Z,1176
2017-06-14T12:52:37.133Z,1192
2017-06-14T12:53:37.717Z,1200
2017-06-14T12:54:38.302Z,1200
2017-06-14T12:55:38.886Z,1212
2017-06-14T12:56:39.472Z,1208
2017-06-14T12:57:40.059Z,1212
2017-06-14T12:58:40.644Z,1204
2017-06-14T12:59:41.228Z,1236
2017-06-14T13:00:41.814Z,1228
2017-06-14T13:01:42.398Z,1228
2017-06-14T13:02:42.986Z,1212
2017-06-14T13:03:43.568Z,1228
2017-06-14T13:04:44.152Z,1244
2017-06-14T13:05:44.739Z,1236
2017-06-14T13:06:45.323Z,1208
2017-06-14T13:07:45.908Z,1244
2017-06-14T13:08:46.494Z,1264
2017-06-14T13:09:47.079Z,1296
2017-06-14T13:10:47.664Z,1236
2017-06-14T13:11:48.249Z,1296
2017-06-14T13:12:48.833Z,1312
2017-06-14T13:13:49.420Z,1296
2017-06-14T13:14:50.004Z,1288
2017-06-14T13:15:50.588Z,1284
2017-06-14T13:16:51.174Z,1292
2017-06-14T13:17:51.758Z,1248
2017-06-14T13:18:52.343Z,1252
2017-06-14T13:19:52.929Z,1244
2017-06-14T13:20:53.513Z,1220
2017-06-14T13:21:54.099Z,1228
2017-06-14T13:22:54.683Z,1244
2017-06-14T13:23:55.298Z,1284
2017-06-14T13:24:55.852Z,1256
2017-06-14T13:25:56.438Z,1256
2017-06-14T13:26:57.024Z,1252
2017-06-14T13:27:57.608Z,1268
2017-06-14T13:28:58.193Z,1292
2017-06-14T13:29:58.789Z,1308
2017-06-14T13:30:59.386Z,1292
2017-06-14T13:31:59.971Z,1252
2017-06-14T13:33:00.558Z,1324
2017-06-14T13:34:01.141Z,1336
2017-06-14T13:35:01.727Z,1348
2017-06-14T13:36:02.312Z,1268
2017-06-14T13:37:02.908Z,1328
2017-06-14T13:38:03.491Z,1316
2017-06-14T13:39:04.077Z,1328
2017-06-14T13:40:04.663Z,1352
2017-06-14T13:41:05.246Z,1344
2017-06-14T13:42:05.833Z,1368
2017-06-14T13:43:06.417Z,1356
2017-06-14T13:44:07.001Z,1372
2017-06-14T13:45:07.587Z,1380
2017-06-14T13:46:08.172Z,1380
2017-06-14T13:47:08.768Z,1376
2017-06-14T13:48:09.357Z,1400
2017-06-14T13:49:09.938Z,1336
2017-06-14T13:50:10.523Z,1336
2017-06-14T13:51:11.110Z,1408
2017-06-14T13:52:11.695Z,1420
2017-06-14T13:53:12.280Z,1360
2017-06-14T13:54:12.864Z,1388
2017-06-14T13:55:13.459Z,1396
2017-06-14T13:56:14.043Z,1404
2017-06-14T13:57:14.632Z,1368
2017-06-14T13:58:15.216Z,1200
2017-06-14T13:59:15.801Z,1340
2017-06-14T14:00:16.386Z,1424
2017-06-14T14:01:16.983Z,1436
2017-06-14T14:02:17.567Z,1384
2017-06-14T14:03:18.152Z,1356